To NAV CANADA Home Page Login to a new session Search on AWWS site Feedback and Comments Disclaimer Vers la page française équivalente Tips FAQ What's new on the site To the Forecasts and Observations / NOTAM section To "File a Flight Plan" website Publications and other links Update of the User's profile FIC Telephone Numbers My Weather Data Folder Route Weather Data Regional Weather Data Local Weather Data To the Forecasts and Observations / NOTAM section
Request Generated 05/01/2016 at 11:52:14 UTC . Weather information available at that time is displayed.

METAR/TAF

MONT-JOLI/QC    

METAR CYYY 011100Z 00000KT 30SM FEW140 04/M04 A3026 RMK AC2 SLP252=
METAR CYYY 011000Z 14004KT 30SM FEW160 01/M04 A3025 RMK AC1 SLP247=
METAR CYYY 010900Z 16006KT 30SM FEW160 M01/M05 A3024 RMK AC1 SLP244=

TAF CYYY 010738Z 0108/0120 17006KT P6SM SKC
BECMG 0111/0113 06006KT
RMK NXT FCST BY 011400Z=
Your time UTC time
Weather data provided by Environment Canada and NAV CANADA